Time;durP1;ratioP1;P1;durP2;ratioP2;P2;SDS_P1;SDS_P2;PMS_P1;PMS_P2;Temp;Humidity;BMP_temperature;BMP_pressure;BME280_temperature;BME280_humidity;BME280_pressure;Samples;Min_cycle;Max_cycle;Signal;HPM_P1;HPM_P2
2022/06/21 00:04:40;;;;;;;4.90;2.70;;;;;;;12.70;60.76;100479.88;10292592;28;20426;-77
2022/06/21 00:09:43;;;;;;;6.70;2.42;;;;;;;12.53;60.94;100473.28;10322471;28;20057;-77
2022/06/21 00:14:48;;;;;;;5.85;3.03;;;;;;;12.39;61.72;100469.06;10310085;28;20201;-77
2022/06/21 00:19:52;;;;;;;4.55;2.78;;;;;;;12.47;61.93;100462.19;10291551;28;20049;-77
2022/06/21 00:24:55;;;;;;;7.30;3.13;;;;;;;12.39;61.82;100479.00;10314345;28;20058;-77
2022/06/21 00:29:59;;;;;;;5.82;2.55;;;;;;;12.05;63.13;100479.22;10294464;28;20190;-77
2022/06/21 00:35:02;;;;;;;5.70;2.40;;;;;;;11.28;65.25;100490.19;10323969;28;20170;-77
2022/06/21 00:40:07;;;;;;;;;;;;;;;11.12;66.55;100487.03;10316189;28;20065;-77
2022/06/21 00:45:16;;;;;;;7.15;3.28;;;;;;;11.56;65.42;100467.22;10311874;28;19931;-77
2022/06/21 00:50:24;;;;;;;6.47;3.03;;;;;;;11.83;64.36;100469.41;10323175;28;20148;-76
2022/06/21 00:55:37;;;;;;;11.70;3.65;;;;;;;11.63;64.79;100484.56;10324266;28;20053;-77
2022/06/21 01:00:52;;;;;;;10.68;4.03;;;;;;;11.53;65.09;100464.78;10323408;28;20058;-76
2022/06/21 01:06:01;;;;;;;6.43;2.95;;;;;;;11.75;64.66;100454.91;10332063;28;20068;-76
2022/06/21 01:11:10;;;;;;;8.00;3.28;;;;;;;11.73;64.83;100466.66;10325730;28;20057;-75
2022/06/21 01:16:15;;;;;;;7.15;3.22;;;;;;;11.36;65.66;100465.34;10324527;28;20286;-76
2022/06/21 01:21:20;;;;;;;5.95;2.90;;;;;;;11.03;67.30;100472.50;10300223;28;20057;-76
2022/06/21 01:26:38;;;;;;;6.00;3.15;;;;;;;10.98;67.27;100470.19;10278792;28;20501;-77
2022/06/21 01:31:47;;;;;;;9.77;2.85;;;;;;;11.06;67.39;100464.19;10301942;28;20085;-76
2022/06/21 01:36:55;;;;;;;5.53;3.13;;;;;;;10.80;68.17;100475.19;10297552;28;20718;-76
2022/06/21 01:42:04;;;;;;;5.18;3.08;;;;;;;11.01;67.73;100469.06;10312658;28;20046;-76
2022/06/21 01:47:14;;;;;;;8.15;3.10;;;;;;;11.09;66.89;100460.38;10300648;28;20061;-76
2022/06/21 01:52:20;;;;;;;8.43;3.00;;;;;;;11.15;66.56;100451.84;10311988;28;20046;-75
2022/06/21 01:57:25;;;;;;;4.68;3.03;;;;;;;11.14;66.11;100442.94;10314239;28;20105;-77
2022/06/21 02:02:32;;;;;;;5.32;2.63;;;;;;;11.18;66.14;100444.38;10314567;28;20192;-76
2022/06/21 02:07:41;;;;;;;7.60;3.38;;;;;;;11.09;66.25;100447.78;10296094;28;20578;-76
2022/06/21 02:12:50;;;;;;;6.53;3.17;;;;;;;11.03;66.27;100443.78;10310311;28;20151;-76
2022/06/21 02:17:54;;;;;;;5.93;2.95;;;;;;;11.18;66.32;100456.97;10309923;28;20050;-76
2022/06/21 02:22:57;;;;;;;11.15;2.95;;;;;;;11.06;66.47;100465.03;10310558;28;20133;-76
2022/06/21 02:28:13;;;;;;;3.80;2.55;;;;;;;11.12;66.02;100470.88;10293285;28;20128;-76
2022/06/21 02:33:19;;;;;;;7.53;3.63;;;;;;;10.98;66.52;100477.41;10313858;28;20049;-76
2022/06/21 02:38:26;;;;;;;5.03;3.20;;;;;;;10.50;68.56;100464.22;10321787;28;20108;-76
2022/06/21 02:43:36;;;;;;;8.32;3.13;;;;;;;10.48;68.83;100448.25;10315944;28;20053;-76
2022/06/21 02:48:44;;;;;;;8.57;3.30;;;;;;;10.65;68.70;100456.78;10321279;28;20137;-76
2022/06/21 02:53:53;;;;;;;6.78;3.35;;;;;;;10.84;68.31;100451.63;10311202;28;20495;-76
2022/06/21 02:59:02;;;;;;;5.80;3.25;;;;;;;10.90;67.19;100443.06;10311111;28;20046;-76
2022/06/21 03:04:07;;;;;;;7.22;3.47;;;;;;;10.87;66.52;100447.84;10303309;28;20565;-76
2022/06/21 03:09:15;;;;;;;4.00;3.13;;;;;;;10.82;66.12;100434.78;10310343;28;20082;-76
2022/06/21 03:14:23;;;;;;;4.00;3.05;;;;;;;10.75;65.69;100426.38;10310827;28;20064;-76
2022/06/21 03:19:30;;;;;;;7.07;3.65;;;;;;;10.72;65.62;100440.03;10306811;28;20054;-76
2022/06/21 03:24:33;;;;;;;8.25;4.18;;;;;;;10.77;65.91;100437.81;10330589;28;20141;-76
2022/06/21 03:29:38;;;;;;;8.60;4.82;;;;;;;10.81;66.24;100450.06;10339987;28;20059;-77
2022/06/21 03:34:41;;;;;;;6.53;4.05;;;;;;;10.54;66.81;100446.91;10316881;28;20053;-77
2022/06/21 03:45:14;;;;;;;11.05;4.13;;;;;;;10.62;67.89;100436.41;10308467;28;20050;-77
2022/06/21 03:50:23;;;;;;;5.35;3.80;;;;;;;10.74;67.70;100448.81;10311867;28;20066;-78
2022/06/21 03:55:35;;;;;;;8.40;3.55;;;;;;;10.71;67.39;100445.53;10316551;28;20066;-77
2022/06/21 04:00:43;;;;;;;10.52;4.32;;;;;;;10.78;67.39;100453.00;10318813;28;20575;-77
2022/06/21 04:05:53;;;;;;;8.52;4.70;;;;;;;10.66;68.25;100467.41;10312785;28;20237;-77
2022/06/21 04:11:06;;;;;;;9.05;3.95;;;;;;;10.50;68.80;100470.44;10323189;28;20093;-77
2022/06/21 04:16:16;;;;;;;9.38;5.22;;;;;;;10.51;69.30;100490.97;10314845;28;20518;-77
2022/06/21 04:21:25;;;;;;;6.28;4.82;;;;;;;10.64;69.47;100490.88;10314535;28;20582;-77
2022/06/21 04:26:34;;;;;;;10.02;5.43;;;;;;;10.67;69.61;100493.31;10318695;28;20052;-76
2022/06/21 04:31:44;;;;;;;7.90;4.72;;;;;;;10.35;70.78;100480.59;10314598;28;20073;-76
2022/06/21 04:36:54;;;;;;;12.65;4.68;;;;;;;10.77;70.41;100488.88;10318399;28;20312;-77
2022/06/21 04:42:02;;;;;;;13.52;5.00;;;;;;;11.00;70.06;100483.50;10316824;28;20046;-76
2022/06/21 04:47:14;;;;;;;7.15;3.28;;;;;;;11.20;69.72;100477.38;10314337;28;20524;-76
2022/06/21 04:52:21;;;;;;;6.33;3.40;;;;;;;11.61;68.62;100489.22;10311480;28;20054;-77
2022/06/21 04:57:29;;;;;;;9.00;2.67;;;;;;;11.91;67.51;100484.94;10319326;28;20145;-76
2022/06/21 05:02:37;;;;;;;5.40;2.78;;;;;;;12.05;65.87;100494.50;10309732;28;20122;-76
2022/06/21 05:07:55;;;;;;;5.22;2.08;;;;;;;12.12;66.09;100493.88;10310858;28;20053;-77
2022/06/21 05:13:00;;;;;;;9.15;3.28;;;;;;;12.17;66.44;100497.00;10311643;28;20054;-77
2022/06/21 05:18:12;;;;;;;8.52;2.40;;;;;;;12.16;66.46;100503.38;10312856;28;20696;-77
2022/06/21 05:23:18;;;;;;;6.30;3.33;;;;;;;12.36;67.10;100508.91;10311110;28;20058;-77
2022/06/21 05:28:28;;;;;;;2.97;2.38;;;;;;;12.58;66.32;100505.19;10320456;28;20060;-76
2022/06/21 05:33:36;;;;;;;6.70;2.70;;;;;;;12.14;67.42;100505.34;10315140;28;20531;-77
2022/06/21 05:38:50;;;;;;;10.88;4.45;;;;;;;12.60;66.89;100511.31;10321823;28;20065;-77
2022/06/21 05:43:53;;;;;;;8.30;3.50;;;;;;;12.70;67.50;100520.31;10310460;28;20170;-77
2022/06/21 05:48:59;;;;;;;12.40;4.05;;;;;;;13.36;64.82;100516.25;10304349;28;20164;-76
2022/06/21 05:54:06;;;;;;;6.07;2.78;;;;;;;13.26;65.01;100513.53;10323875;28;20104;-77
2022/06/21 05:59:14;;;;;;;11.63;3.47;;;;;;;13.36;64.53;100518.97;10292994;28;20038;-77
2022/06/21 06:04:25;;;;;;;11.55;3.75;;;;;;;14.05;63.28;100516.16;10307020;28;20120;-77
2022/06/21 06:09:34;;;;;;;9.82;3.75;;;;;;;14.38;62.25;100508.56;10313633;28;20034;-77
2022/06/21 06:14:42;;;;;;;9.02;2.25;;;;;;;14.91;60.98;100512.53;10311592;28;20050;-76
2022/06/21 06:19:53;;;;;;;9.77;3.13;;;;;;;15.31;59.11;100495.94;10298054;28;20156;-77
2022/06/21 06:25:02;;;;;;;10.90;3.35;;;;;;;15.81;58.07;100506.28;10298009;28;20587;-77
2022/06/21 06:30:07;;;;;;;10.70;4.10;;;;;;;15.66;56.94;100513.22;10312950;28;20053;-77
2022/06/21 06:35:19;;;;;;;9.32;2.72;;;;;;;14.63;60.18;100522.47;10324307;28;20124;-77
2022/06/21 06:40:25;;;;;;;7.03;2.75;;;;;;;14.04;61.50;100516.28;10331171;28;20148;-77
2022/06/21 06:45:32;;;;;;;11.10;2.88;;;;;;;14.25;60.89;100511.56;10323095;28;20097;-77
2022/06/21 06:50:41;;;;;;;14.88;3.17;;;;;;;14.22;60.06;100506.47;10295112;28;20061;-77
2022/06/21 06:55:47;;;;;;;9.82;2.33;;;;;;;14.80;59.20;100491.94;10304480;28;20054;-77
2022/06/21 07:01:05;;;;;;;11.50;2.58;;;;;;;15.45;56.98;100511.69;10320771;28;20046;-77
2022/06/21 07:06:18;;;;;;;7.72;2.30;;;;;;;15.74;56.09;100498.94;10309062;28;20496;-78
2022/06/21 07:11:26;;;;;;;9.38;2.38;;;;;;;15.64;55.89;100501.72;10308084;28;20100;-78
2022/06/21 07:16:36;;;;;;;21.77;3.25;;;;;;;16.26;54.59;100512.59;10331537;28;20073;-78
2022/06/21 07:21:41;;;;;;;17.48;2.58;;;;;;;16.86;54.55;100506.34;10322069;28;20929;-78
2022/06/21 07:26:48;;;;;;;11.77;2.65;;;;;;;20.76;46.47;100495.44;10312760;28;20128;-78
2022/06/21 07:31:56;;;;;;;9.65;1.67;;;;;;;23.73;39.15;100500.03;10318391;28;21530;-78
2022/06/21 07:37:05;;;;;;;5.75;1.58;;;;;;;25.67;34.89;100501.38;10302467;28;20058;-78
2022/06/21 07:42:13;;;;;;;7.18;2.33;;;;;;;26.81;32.53;100506.78;10310889;28;20085;-78
2022/06/21 07:47:21;;;;;;;7.45;2.35;;;;;;;25.57;33.34;100512.00;10301725;28;20072;-77
2022/06/21 07:52:30;;;;;;;6.78;2.00;;;;;;;24.46;34.79;100510.22;10314745;28;20160;-78
2022/06/21 07:57:45;;;;;;;6.00;2.13;;;;;;;22.59;38.35;100497.81;10338646;28;20064;-78
2022/06/21 08:08:21;;;;;;;9.65;2.35;;;;;;;20.68;43.06;100493.69;10325079;28;20228;-77
2022/06/21 08:13:24;;;;;;;7.85;2.13;;;;;;;20.35;41.83;100509.56;10306666;28;20508;-78
2022/06/21 08:18:32;;;;;;;13.35;2.75;;;;;;;20.49;42.69;100505.16;10322645;28;20076;-77
2022/06/21 08:23:45;;;;;;;8.93;2.38;;;;;;;19.74;42.48;100508.66;10325997;28;20494;-77
2022/06/21 08:28:53;;;;;;;8.00;3.05;;;;;;;18.68;45.21;100505.41;10325765;28;20058;-77
2022/06/21 08:34:01;;;;;;;12.85;2.85;;;;;;;19.39;44.45;100502.72;10299532;28;20109;-78
2022/06/21 08:39:11;;;;;;;6.65;1.77;;;;;;;20.12;43.84;100488.56;10330549;28;20209;-76
2022/06/21 08:44:47;;;;;;;8.10;2.38;;;;;;;21.10;42.13;100485.84;10327188;28;20064;-78
2022/06/21 08:50:11;;;;;;;8.63;2.20;;;;;;;19.08;44.18;100475.50;10310511;28;20136;-78
2022/06/21 08:55:24;;;;;;;7.18;2.17;;;;;;;19.66;44.27;100471.41;10320919;28;20102;-78
2022/06/21 09:00:36;;;;;;;4.88;2.55;;;;;;;20.97;41.56;100462.75;10343259;28;20062;-78
2022/06/21 09:05:52;;;;;;;11.35;2.22;;;;;;;21.18;40.64;100466.63;10340370;28;20074;-79
2022/06/21 09:11:11;;;;;;;7.75;1.98;;;;;;;20.33;41.58;100460.63;10347400;28;20047;-78
2022/06/21 09:16:20;;;;;;;8.00;1.95;;;;;;;20.97;41.87;100459.19;10326803;28;20085;-79
2022/06/21 09:21:32;;;;;;;7.82;1.70;;;;;;;21.89;40.28;100453.09;10312718;28;20590;-78
2022/06/21 09:26:43;;;;;;;7.18;1.75;;;;;;;22.26;38.42;100456.53;10313646;28;20046;-77
2022/06/21 09:32:01;;;;;;;4.93;1.58;;;;;;;22.15;37.89;100446.13;10343692;28;20136;-78
2022/06/21 09:37:15;;;;;;;4.57;1.20;;;;;;;22.14;37.60;100433.50;10316663;28;20515;-78
2022/06/21 09:42:29;;;;;;;4.25;1.05;;;;;;;22.67;35.57;100422.91;10323121;28;20060;-78
2022/06/21 09:47:38;;;;;;;9.80;2.15;;;;;;;22.82;37.98;100425.50;10320928;28;20074;-78
2022/06/21 09:52:50;;;;;;;4.03;1.17;;;;;;;23.46;35.70;100411.41;10336391;28;20054;-77
2022/06/21 09:58:03;;;;;;;6.03;1.17;;;;;;;23.76;33.73;100405.53;10307453;28;20050;-78
2022/06/21 10:03:17;;;;;;;4.05;1.20;;;;;;;23.08;33.90;100411.91;10318069;28;20447;-77
2022/06/21 10:08:29;;;;;;;5.07;1.17;;;;;;;22.73;33.81;100411.13;10324017;28;20053;-77
2022/06/21 10:13:46;;;;;;;;;;;;;;;23.61;32.03;100390.13;10306287;28;20376;-78
2022/06/21 10:19:03;;;;;;;7.32;1.17;;;;;;;24.20;31.53;100395.81;10315872;28;19961;-78
2022/06/21 10:24:22;;;;;;;3.45;1.40;;;;;;;24.14;33.77;100382.94;10311184;28;20677;-78
2022/06/21 10:29:44;;;;;;;5.15;1.20;;;;;;;24.92;32.63;100381.00;10294635;28;20049;-78
2022/06/21 10:35:07;;;;;;;3.28;1.02;;;;;;;24.55;32.44;100379.91;10324204;28;20570;-78
2022/06/21 10:40:26;;;;;;;4.95;1.23;;;;;;;24.84;31.44;100386.75;10324248;28;20078;-78
2022/06/21 10:45:42;;;;;;;3.75;1.10;;;;;;;24.70;31.99;100380.47;10310566;28;20105;-78
2022/06/21 10:50:55;;;;;;;5.65;1.35;;;;;;;24.39;31.86;100375.69;10306432;28;20420;-78
2022/06/21 11:01:31;;;;;;;4.10;1.10;;;;;;;23.81;34.16;100357.25;10302969;28;20116;-79
2022/06/21 11:06:46;;;;;;;9.25;1.40;;;;;;;25.25;32.65;100354.41;10322477;28;20046;-78
2022/06/21 11:11:55;;;;;;;4.93;1.10;;;;;;;25.35;31.69;100339.13;10328709;28;21304;-79
2022/06/21 11:17:09;;;;;;;6.88;1.45;;;;;;;26.19;30.97;100323.13;10301410;28;21314;-79
2022/06/21 11:22:29;;;;;;;5.68;1.30;;;;;;;27.21;30.47;100314.19;10340164;28;20062;-79
2022/06/21 11:27:38;;;;;;;5.93;1.45;;;;;;;26.70;31.01;100315.53;10315279;28;20057;-79
2022/06/21 11:32:52;;;;;;;4.95;1.45;;;;;;;27.14;30.11;100306.00;10319796;28;20452;-79
2022/06/21 11:38:14;;;;;;;5.20;1.48;;;;;;;26.86;29.29;100301.13;10352849;28;20055;-79
2022/06/21 11:43:35;;;;;;;3.95;1.30;;;;;;;26.65;30.53;100299.69;10339200;28;20101;-78
2022/06/21 11:49:23;;;;;;;5.53;1.33;;;;;;;26.12;29.97;100316.00;10306812;28;20053;-78
2022/06/21 11:54:39;;;;;;;6.95;1.58;;;;;;;26.11;30.70;100311.56;10322509;28;20042;-78
2022/06/21 11:59:49;;;;;;;4.65;1.30;;;;;;;25.97;31.37;100302.59;10321295;28;20543;-78
2022/06/21 12:05:00;;;;;;;3.50;1.15;;;;;;;26.01;31.28;100281.84;10311139;28;20089;-78
2022/06/21 12:10:12;;;;;;;3.40;1.13;;;;;;;27.18;30.38;100273.31;10337041;28;20101;-78
2022/06/21 12:15:38;;;;;;;4.15;1.35;;;;;;;28.03;27.75;100267.34;10333984;28;20050;-78
2022/06/21 12:20:45;;;;;;;3.25;1.00;;;;;;;27.32;28.37;100271.16;10312710;28;20046;-78
2022/06/21 12:25:49;;;;;;;3.63;1.45;;;;;;;27.20;29.33;100273.03;10325993;28;20055;-77
2022/06/21 12:30:53;;;;;;;2.40;0.90;;;;;;;27.22;28.36;100273.66;10315297;28;20046;-77
2022/06/21 12:36:23;;;;;;;4.22;1.08;;;;;;;26.75;28.72;100274.34;10321744;28;21051;-79
2022/06/21 12:41:38;;;;;;;3.85;1.40;;;;;;;27.88;29.55;100266.13;10322875;28;20132;-79
2022/06/21 12:47:05;;;;;;;2.70;1.35;;;;;;;28.96;26.96;100255.34;10312772;28;20054;-77
2022/06/21 12:52:17;;;;;;;3.13;1.55;;;;;;;28.44;27.97;100246.09;10327287;28;20063;-78
2022/06/21 12:57:50;;;;;;;4.40;1.05;;;;;;;28.28;27.48;100241.34;10318645;28;20058;-79
2022/06/21 13:03:17;;;;;;;5.20;1.23;;;;;;;28.20;27.70;100234.28;10305194;28;20061;-79
2022/06/21 13:09:01;;;;;;;4.18;1.30;;;;;;;27.06;28.77;100242.94;10324560;28;20048;-78
2022/06/21 13:14:33;;;;;;;3.25;1.13;;;;;;;27.09;28.44;100231.44;10317281;28;20054;-78
2022/06/21 13:19:57;;;;;;;4.90;1.17;;;;;;;26.69;29.42;100229.28;10326657;28;20050;-78
2022/06/21 13:25:15;;;;;;;5.88;1.33;;;;;;;26.57;29.01;100220.13;10349378;28;20061;-77
2022/06/21 13:30:33;;;;;;;4.03;1.08;;;;;;;26.54;29.54;100219.78;10329228;28;20046;-77
2022/06/21 13:35:48;;;;;;;2.88;0.90;;;;;;;26.91;29.28;100226.03;10321619;28;20077;-79
2022/06/21 13:40:56;;;;;;;5.13;1.05;;;;;;;26.43;29.22;100226.91;10332817;28;20173;-79
2022/06/21 13:46:12;;;;;;;5.72;1.20;;;;;;;25.39;31.34;100238.63;10322759;28;20053;-78
2022/06/21 13:51:34;;;;;;;6.00;1.00;;;;;;;25.71;29.70;100226.72;10315020;28;20073;-79
2022/06/21 13:56:47;;;;;;;3.08;1.05;;;;;;;26.50;28.60;100225.75;10317943;28;20054;-78
2022/06/21 14:01:59;;;;;;;4.45;1.00;;;;;;;27.05;28.80;100226.66;10339865;28;20049;-77
2022/06/21 14:07:09;;;;;;;5.18;2.50;;;;;;;26.34;28.64;100222.81;10333820;28;20427;-79
2022/06/21 14:12:18;;;;;;;3.95;1.15;;;;;;;26.99;29.73;100217.41;10323023;28;20058;-79
2022/06/21 14:17:28;;;;;;;3.22;1.00;;;;;;;26.91;29.58;100218.59;10326892;28;20504;-78
2022/06/21 14:22:37;;;;;;;3.97;1.00;;;;;;;26.81;28.59;100217.47;10310321;28;20038;-78
2022/06/21 14:27:46;;;;;;;2.03;0.85;;;;;;;26.92;28.20;100194.63;10296976;28;21225;-78
2022/06/21 14:32:56;;;;;;;3.00;1.13;;;;;;;27.87;29.19;100195.47;10310403;28;20042;-77
2022/06/21 14:38:05;;;;;;;5.20;1.17;;;;;;;29.09;26.87;100192.31;10319318;28;20085;-76
2022/06/21 14:43:23;;;;;;;6.17;1.20;;;;;;;28.20;27.14;100179.06;10313440;28;20133;-79
2022/06/21 14:48:35;;;;;;;5.13;1.30;;;;;;;27.07;29.01;100175.72;10305506;28;20050;-78
2022/06/21 14:54:06;;;;;;;3.72;1.10;;;;;;;26.46;29.74;100171.38;10302984;28;20046;-79
2022/06/21 14:59:25;;;;;;;5.88;0.90;;;;;;;27.46;28.86;100173.34;10308083;28;20113;-79
2022/06/21 15:04:53;;;;;;;5.35;1.60;;;;;;;28.61;26.37;100159.69;10313905;28;20120;-77
2022/06/21 15:09:59;;;;;;;3.88;1.30;;;;;;;29.37;25.95;100160.09;10332988;28;20684;-78
2022/06/21 15:15:25;;;;;;;2.72;0.95;;;;;;;29.46;26.27;100141.97;10327717;28;20122;-79
2022/06/21 15:20:34;;;;;;;4.40;1.00;;;;;;;30.00;25.62;100130.19;10312056;28;20061;-78
2022/06/21 15:25:48;;;;;;;4.43;1.15;;;;;;;30.40;25.28;100132.59;10320649;28;20135;-79
2022/06/21 15:30:55;;;;;;;4.38;1.10;;;;;;;31.05;24.09;100125.13;10326400;28;20057;-79
2022/06/21 15:36:14;;;;;;;3.15;1.00;;;;;;;29.80;26.18;100123.34;10322191;28;20041;-79
2022/06/21 15:41:24;;;;;;;2.63;1.00;;;;;;;29.34;26.67;100127.41;10316809;28;20565;-78
2022/06/21 15:46:30;;;;;;;4.53;1.15;;;;;;;28.79;26.26;100126.28;10308338;28;20065;-78
2022/06/21 15:51:40;;;;;;;2.72;1.17;;;;;;;29.63;26.30;100118.97;10319082;28;20508;-79
2022/06/21 15:56:52;;;;;;;1.60;0.93;;;;;;;28.99;26.97;100109.19;10326436;28;20061;-79
2022/06/21 16:02:04;;;;;;;5.25;1.42;;;;;;;28.36;27.34;100108.41;10323212;28;20050;-78
2022/06/21 16:07:17;;;;;;;3.45;1.10;;;;;;;28.51;28.31;100105.06;10321506;28;20073;-79
2022/06/21 16:12:25;;;;;;;2.47;1.10;;;;;;;28.57;29.20;100109.59;10311467;28;20050;-79
2022/06/21 16:17:36;;;;;;;1.90;1.38;;;;;;;28.74;28.96;100109.59;10320086;28;20042;-79
2022/06/21 16:22:45;;;;;;;2.67;1.20;;;;;;;30.39;26.44;100094.06;10324060;28;20053;-79
2022/06/21 16:27:52;;;;;;;8.48;1.52;;;;;;;30.57;25.92;100088.13;10328530;28;20058;-79
2022/06/21 16:33:16;;;;;;;5.18;1.15;;;;;;;29.37;27.54;100088.16;10317364;28;20061;-79
2022/06/21 16:38:29;;;;;;;3.10;0.90;;;;;;;31.24;25.12;100067.31;10304171;28;20440;-78
2022/06/21 16:43:41;;;;;;;3.67;0.98;;;;;;;34.14;22.51;100067.44;10332929;28;20057;-79
2022/06/21 16:48:50;;;;;;;4.47;1.17;;;;;;;34.89;22.33;100059.84;10331993;28;20049;-78
2022/06/21 16:53:58;;;;;;;3.47;1.13;;;;;;;35.87;21.40;100057.56;10321797;28;21154;-79
2022/06/21 16:59:15;;;;;;;3.38;1.00;;;;;;;34.45;21.43;100055.22;10317260;28;20669;-78
2022/06/21 17:04:21;;;;;;;3.58;1.20;;;;;;;30.15;26.07;100052.03;10336479;28;20143;-78
2022/06/21 17:09:28;;;;;;;2.35;0.98;;;;;;;29.72;27.77;100059.31;10339047;28;20108;-78
2022/06/21 17:14:56;;;;;;;2.72;0.90;;;;;;;34.39;23.08;100046.91;10333557;28;20069;-77
2022/06/21 17:20:16;;;;;;;5.63;1.50;;;;;;;38.49;19.65;100042.91;10320121;28;20046;-78
2022/06/21 17:25:21;;;;;;;1.40;0.90;;;;;;;40.17;17.85;100037.19;10327814;28;20050;-77
2022/06/21 17:30:31;;;;;;;5.70;0.90;;;;;;;34.04;21.87;100050.78;10327722;28;20053;-77
2022/06/21 17:35:39;;;;;;;2.15;1.08;;;;;;;30.00;26.33;100059.03;10316513;28;20656;-77
2022/06/21 17:40:55;;;;;;;4.72;1.00;;;;;;;28.32;28.43;100059.44;10319834;28;20074;-78
2022/06/21 17:46:04;;;;;;;2.83;1.10;;;;;;;31.76;26.53;100040.59;10323258;28;20042;-77
2022/06/21 17:51:11;;;;;;;3.00;0.95;;;;;;;33.36;22.99;100042.22;10319430;28;20053;-76
2022/06/21 17:56:22;;;;;;;4.82;0.82;;;;;;;28.77;26.58;100048.31;10303889;28;20046;-78
2022/06/21 18:01:35;;;;;;;3.50;1.05;;;;;;;25.51;30.99;100061.94;10302424;28;20046;-78
2022/06/21 18:06:45;;;;;;;3.95;1.15;;;;;;;23.98;33.15;100055.91;10328272;28;20042;-76
2022/06/21 18:12:01;;;;;;;3.35;0.98;;;;;;;23.10;35.13;100064.66;10333811;28;20183;-77
2022/06/21 18:17:14;;;;;;;1.35;1.13;;;;;;;22.70;36.41;100058.41;10321538;28;20055;-78
2022/06/21 18:22:30;;;;;;;4.05;1.33;;;;;;;22.36;37.28;100057.53;10315438;28;21572;-81
2022/06/21 18:27:46;;;;;;;5.55;0.90;;;;;;;22.16;37.39;100060.25;10331728;28;20057;-78
2022/06/21 18:32:53;;;;;;;5.85;1.67;;;;;;;21.96;37.73;100059.38;10340060;28;20132;-78
2022/06/21 18:38:32;;;;;;;2.90;1.20;;;;;;;21.84;38.58;100070.91;10320865;28;20104;-78
2022/06/21 18:43:51;;;;;;;2.85;0.98;;;;;;;21.67;38.74;100066.84;10307173;28;20057;-78
2022/06/21 18:49:27;;;;;;;4.40;1.30;;;;;;;21.56;38.87;100073.72;10348584;28;20050;-79
2022/06/21 18:54:44;;;;;;;2.67;1.02;;;;;;;21.47;38.18;100080.41;10279093;28;20064;-77
2022/06/21 19:00:00;;;;;;;2.78;1.10;;;;;;;21.48;38.74;100082.09;10314128;28;20066;-76
2022/06/21 19:10:43;;;;;;;4.43;1.17;;;;;;;21.31;39.74;100098.00;10320722;28;20610;-78
2022/06/21 19:15:57;;;;;;;4.45;1.30;;;;;;;21.27;39.38;100095.88;10337585;28;20277;-78
2022/06/21 19:21:09;;;;;;;3.05;1.30;;;;;;;21.18;39.79;100104.22;10328188;28;20678;-78
2022/06/21 19:26:23;;;;;;;5.40;1.27;;;;;;;21.12;40.02;100112.38;10334168;28;20525;-78
2022/06/21 19:31:50;;;;;;;3.30;1.42;;;;;;;20.99;40.34;100118.56;10322910;28;20041;-78
2022/06/21 19:36:59;;;;;;;4.43;1.25;;;;;;;20.82;40.57;100115.28;10340854;28;20046;-79
2022/06/21 19:42:20;;;;;;;3.22;1.20;;;;;;;20.66;40.31;100113.69;10342147;28;20128;-79
2022/06/21 19:47:32;;;;;;;2.53;0.93;;;;;;;20.52;40.93;100120.06;10313339;28;20045;-78
2022/06/21 19:52:40;;;;;;;3.10;1.33;;;;;;;20.34;41.02;100124.06;10327649;28;20096;-77
2022/06/21 19:57:45;;;;;;;5.45;1.27;;;;;;;20.24;41.25;100118.09;10302091;28;20415;-78
2022/06/21 20:02:51;;;;;;;4.90;1.02;;;;;;;20.05;41.81;100107.81;10332624;28;20081;-77
2022/06/21 20:08:16;;;;;;;1.90;1.20;;;;;;;20.02;42.30;100111.78;10324828;28;20575;-77
2022/06/21 20:13:33;;;;;;;2.92;1.00;;;;;;;19.94;42.40;100116.47;10328420;28;20056;-77
2022/06/21 20:18:45;;;;;;;6.18;1.40;;;;;;;19.85;42.60;100111.13;10301964;28;20183;-78
2022/06/21 20:24:02;;;;;;;3.58;1.00;;;;;;;19.80;43.30;100108.16;10334742;28;20050;-77
2022/06/21 20:29:12;;;;;;;2.95;1.17;;;;;;;19.72;42.82;100100.09;10315786;28;20056;-77
2022/06/21 20:34:26;;;;;;;3.53;1.15;;;;;;;19.68;42.97;100104.22;10333821;28;20563;-79
2022/06/21 20:39:36;;;;;;;1.88;1.20;;;;;;;19.63;43.16;100118.41;10329417;28;20092;-78
2022/06/21 20:44:42;;;;;;;5.10;1.30;;;;;;;19.58;43.68;100118.16;10330017;28;20053;-78
2022/06/21 20:50:28;;;;;;;3.92;1.98;;;;;;;19.37;45.18;100116.16;10332806;28;20053;-77
2022/06/21 20:55:32;;;;;;;7.15;1.50;;;;;;;19.23;44.33;100109.69;10322892;28;20050;-78
2022/06/21 21:00:43;;;;;;;4.30;1.40;;;;;;;19.05;44.43;100108.38;10338137;28;20057;-77
2022/06/21 21:05:47;;;;;;;5.43;1.60;;;;;;;18.87;45.08;100119.59;10324373;28;20507;-77
2022/06/21 21:10:55;;;;;;;3.08;1.15;;;;;;;18.77;45.24;100128.84;10326472;28;20041;-78
2022/06/21 21:16:02;;;;;;;3.85;1.30;;;;;;;18.78;45.19;100133.28;10308577;28;20546;-79
2022/06/21 21:21:08;;;;;;;2.50;1.38;;;;;;;18.75;45.27;100132.78;10318282;28;21363;-79
2022/06/21 21:26:18;;;;;;;2.63;1.15;;;;;;;18.77;45.57;100119.84;10325489;28;20053;-78
2022/06/21 21:31:44;;;;;;;3.60;1.48;;;;;;;18.70;45.26;100133.31;10329240;28;20053;-77
2022/06/21 21:36:53;;;;;;;3.65;1.48;;;;;;;18.60;45.85;100123.75;10333906;28;20050;-76
2022/06/21 21:42:04;;;;;;;4.10;1.20;;;;;;;18.49;45.62;100117.72;10335189;28;20057;-78
2022/06/21 21:47:10;;;;;;;5.18;1.50;;;;;;;18.46;46.24;100109.06;10310223;28;20062;-78
2022/06/21 21:52:22;;;;;;;2.53;1.33;;;;;;;18.43;46.88;100104.84;10318037;28;20415;-78
2022/06/21 21:57:32;;;;;;;5.38;1.40;;;;;;;18.42;47.37;100119.44;10322308;28;20057;-77
2022/06/21 22:02:52;;;;;;;6.10;1.73;;;;;;;18.27;47.32;100119.41;10327985;28;20079;-77
2022/06/21 22:08:20;;;;;;;4.63;1.45;;;;;;;18.24;47.18;100114.34;10315131;28;20100;-77
2022/06/21 22:13:31;;;;;;;3.13;1.77;;;;;;;18.20;47.85;100107.56;10334122;28;20492;-77
2022/06/21 22:18:37;;;;;;;6.05;1.65;;;;;;;18.17;47.86;100104.34;10334155;28;20053;-77
2022/06/21 22:23:45;;;;;;;4.15;1.77;;;;;;;18.16;48.17;100100.81;10343573;28;20050;-77
2022/06/21 22:28:52;;;;;;;2.83;1.58;;;;;;;18.01;48.39;100094.44;10319180;28;20046;-78
2022/06/21 22:33:58;;;;;;;2.60;1.38;;;;;;;17.82;48.53;100095.72;10305484;28;20098;-78
2022/06/21 22:39:05;;;;;;;4.70;1.58;;;;;;;17.74;48.43;100091.16;10319808;28;20053;-78
2022/06/21 22:44:10;;;;;;;4.32;1.60;;;;;;;17.77;48.11;100088.13;10322417;28;20066;-78
2022/06/21 22:49:19;;;;;;;3.60;1.50;;;;;;;17.72;48.18;100089.66;10331990;28;20056;-76
2022/06/21 22:54:25;;;;;;;5.38;1.70;;;;;;;17.63;48.39;100107.84;10326845;28;20161;-76
2022/06/21 22:59:47;;;;;;;3.83;1.70;;;;;;;17.36;48.69;100115.47;10308784;28;20077;-77
2022/06/21 23:04:56;;;;;;;2.22;1.60;;;;;;;17.29;48.50;100133.44;10313797;28;20054;-77
2022/06/21 23:10:01;;;;;;;1.80;1.33;;;;;;;16.77;49.95;100144.72;10312268;28;20608;-78
2022/06/21 23:15:06;;;;;;;3.28;1.60;;;;;;;16.01;52.10;100149.34;10314782;28;20105;-77
2022/06/21 23:20:13;;;;;;;2.20;1.60;;;;;;;16.16;51.99;100154.97;10308876;28;20479;-78
2022/06/21 23:25:26;;;;;;;5.25;1.83;;;;;;;16.11;52.20;100155.47;10304372;28;20708;-77
2022/06/21 23:30:32;;;;;;;4.03;1.33;;;;;;;15.89;51.83;100162.34;10356716;28;20080;-77
2022/06/21 23:35:40;;;;;;;2.83;1.50;;;;;;;16.19;51.96;100172.78;10356705;28;20065;-77
2022/06/21 23:40:43;;;;;;;3.17;1.30;;;;;;;16.10;51.51;100164.63;10352485;28;20054;-78
2022/06/21 23:45:49;;;;;;;2.80;1.50;;;;;;;16.26;52.28;100166.53;10345956;28;21257;-77
2022/06/21 23:50:53;;;;;;;2.47;1.50;;;;;;;16.44;51.58;100155.56;10337559;28;20050;-77
2022/06/21 23:55:58;;;;;;;3.33;1.50;;;;;;;16.55;51.58;100154.38;10344873;28;20396;-77
